sensor_id;sensor_type;location;lat;lon;timestamp;temperature;humidity
698;DHT22;331;48.414;9.938;2023-04-03T00:01:17;6.80;99.90
698;DHT22;331;48.414;9.938;2023-04-03T00:03:44;6.80;99.90
698;DHT22;331;48.414;9.938;2023-04-03T00:06:12;6.80;99.90
698;DHT22;331;48.414;9.938;2023-04-03T00:08:39;6.80;99.90
698;DHT22;331;48.414;9.938;2023-04-03T00:11:06;6.70;99.90
698;DHT22;331;48.414;9.938;2023-04-03T00:13:33;6.70;99.90
698;DHT22;331;48.414;9.938;2023-04-03T00:16:00;6.70;99.90
698;DHT22;331;48.414;9.938;2023-04-03T00:18:28;6.70;99.90
698;DHT22;331;48.414;9.938;2023-04-03T00:20:55;6.70;99.90
698;DHT22;331;48.414;9.938;2023-04-03T00:23:23;6.70;99.90
698;DHT22;331;48.414;9.938;2023-04-03T00:25:53;6.70;99.90
698;DHT22;331;48.414;9.938;2023-04-03T00:28:21;6.70;99.90
698;DHT22;331;48.414;9.938;2023-04-03T00:30:48;6.60;99.90
698;DHT22;331;48.414;9.938;2023-04-03T00:33:14;6.60;99.90
698;DHT22;331;48.414;9.938;2023-04-03T00:35:41;6.60;99.90
698;DHT22;331;48.414;9.938;2023-04-03T00:38:09;6.60;99.90
698;DHT22;331;48.414;9.938;2023-04-03T00:40:37;6.60;99.90
698;DHT22;331;48.414;9.938;2023-04-03T00:43:05;6.60;99.90
698;DHT22;331;48.414;9.938;2023-04-03T00:45:37;6.60;99.90
698;DHT22;331;48.414;9.938;2023-04-03T00:48:05;6.60;99.90
698;DHT22;331;48.414;9.938;2023-04-03T00:50:33;6.50;99.90
698;DHT22;331;48.414;9.938;2023-04-03T00:53:01;6.50;99.90
698;DHT22;331;48.414;9.938;2023-04-03T00:55:28;6.50;99.90
698;DHT22;331;48.414;9.938;2023-04-03T00:57:57;6.50;99.90
698;DHT22;331;48.414;9.938;2023-04-03T01:00:24;6.50;99.90
698;DHT22;331;48.414;9.938;2023-04-03T01:02:51;6.40;99.90
698;DHT22;331;48.414;9.938;2023-04-03T01:05:21;6.40;99.90
698;DHT22;331;48.414;9.938;2023-04-03T01:07:48;6.40;99.90
698;DHT22;331;48.414;9.938;2023-04-03T01:10:19;6.40;99.90
698;DHT22;331;48.414;9.938;2023-04-03T01:17:43;6.30;99.90
698;DHT22;331;48.414;9.938;2023-04-03T01:22:53;6.30;99.90
698;DHT22;331;48.414;9.938;2023-04-03T01:25:22;6.30;99.90
698;DHT22;331;48.414;9.938;2023-04-03T01:27:50;6.30;99.90
698;DHT22;331;48.414;9.938;2023-04-03T01:30:18;6.30;99.90
698;DHT22;331;48.414;9.938;2023-04-03T01:32:47;6.30;99.90
698;DHT22;331;48.414;9.938;2023-04-03T01:35:14;6.30;99.90
698;DHT22;331;48.414;9.938;2023-04-03T01:37:41;6.20;99.90
698;DHT22;331;48.414;9.938;2023-04-03T01:40:09;6.20;99.90
698;DHT22;331;48.414;9.938;2023-04-03T01:42:36;6.20;99.90
698;DHT22;331;48.414;9.938;2023-04-03T01:45:03;6.20;99.90
698;DHT22;331;48.414;9.938;2023-04-03T01:47:30;6.20;99.90
698;DHT22;331;48.414;9.938;2023-04-03T01:49:58;6.20;99.90
698;DHT22;331;48.414;9.938;2023-04-03T01:52:25;6.20;99.90
698;DHT22;331;48.414;9.938;2023-04-03T01:54:52;6.20;99.90
698;DHT22;331;48.414;9.938;2023-04-03T01:57:19;6.20;99.90
698;DHT22;331;48.414;9.938;2023-04-03T01:59:45;6.10;99.90
698;DHT22;331;48.414;9.938;2023-04-03T02:02:13;6.10;99.90
698;DHT22;331;48.414;9.938;2023-04-03T02:04:40;6.10;99.90
698;DHT22;331;48.414;9.938;2023-04-03T02:07:08;6.10;99.90
698;DHT22;331;48.414;9.938;2023-04-03T02:09:35;6.10;99.90
698;DHT22;331;48.414;9.938;2023-04-03T02:12:02;6.10;99.90
698;DHT22;331;48.414;9.938;2023-04-03T02:14:30;6.00;99.90
698;DHT22;331;48.414;9.938;2023-04-03T02:16:56;6.00;99.90
698;DHT22;331;48.414;9.938;2023-04-03T02:19:23;6.00;99.90
698;DHT22;331;48.414;9.938;2023-04-03T02:21:50;6.00;99.90
698;DHT22;331;48.414;9.938;2023-04-03T02:24:18;6.00;99.90
698;DHT22;331;48.414;9.938;2023-04-03T02:26:45;6.00;99.90
698;DHT22;331;48.414;9.938;2023-04-03T02:29:12;6.00;99.90
698;DHT22;331;48.414;9.938;2023-04-03T02:31:39;5.90;99.90
698;DHT22;331;48.414;9.938;2023-04-03T02:34:06;5.90;99.90
698;DHT22;331;48.414;9.938;2023-04-03T02:36:34;5.90;99.90
698;DHT22;331;48.414;9.938;2023-04-03T02:39:05;5.90;99.90
698;DHT22;331;48.414;9.938;2023-04-03T02:41:33;5.90;99.90
698;DHT22;331;48.414;9.938;2023-04-03T02:44:02;5.90;99.90
698;DHT22;331;48.414;9.938;2023-04-03T02:46:30;5.90;99.90
698;DHT22;331;48.414;9.938;2023-04-03T02:48:58;5.90;99.90
698;DHT22;331;48.414;9.938;2023-04-03T02:51:25;5.90;99.90
698;DHT22;331;48.414;9.938;2023-04-03T02:53:52;5.80;99.90
698;DHT22;331;48.414;9.938;2023-04-03T02:56:23;5.80;99.90
698;DHT22;331;48.414;9.938;2023-04-03T02:58:53;5.80;99.90
698;DHT22;331;48.414;9.938;2023-04-03T03:01:22;5.80;99.90
698;DHT22;331;48.414;9.938;2023-04-03T03:03:48;5.80;99.90
698;DHT22;331;48.414;9.938;2023-04-03T03:06:17;5.80;99.90
698;DHT22;331;48.414;9.938;2023-04-03T03:08:44;5.80;99.90
698;DHT22;331;48.414;9.938;2023-04-03T03:11:11;5.70;99.90
698;DHT22;331;48.414;9.938;2023-04-03T03:13:38;5.70;99.90
698;DHT22;331;48.414;9.938;2023-04-03T03:16:07;5.70;99.90
698;DHT22;331;48.414;9.938;2023-04-03T03:18:34;5.70;99.90
698;DHT22;331;48.414;9.938;2023-04-03T03:21:01;5.70;99.90
698;DHT22;331;48.414;9.938;2023-04-03T03:23:29;5.70;99.90
698;DHT22;331;48.414;9.938;2023-04-03T03:25:58;5.70;99.90
698;DHT22;331;48.414;9.938;2023-04-03T03:28:26;5.60;99.90
698;DHT22;331;48.414;9.938;2023-04-03T03:30:53;5.70;99.90
698;DHT22;331;48.414;9.938;2023-04-03T03:33:22;5.60;99.90
698;DHT22;331;48.414;9.938;2023-04-03T03:35:49;5.60;99.90
698;DHT22;331;48.414;9.938;2023-04-03T03:38:15;5.60;99.90
698;DHT22;331;48.414;9.938;2023-04-03T03:40:42;5.60;99.90
698;DHT22;331;48.414;9.938;2023-04-03T03:43:09;5.60;99.90
698;DHT22;331;48.414;9.938;2023-04-03T03:45:36;5.60;99.90
698;DHT22;331;48.414;9.938;2023-04-03T03:48:03;5.60;99.90
698;DHT22;331;48.414;9.938;2023-04-03T03:50:31;5.60;99.90
698;DHT22;331;48.414;9.938;2023-04-03T03:52:59;5.50;99.90
698;DHT22;331;48.414;9.938;2023-04-03T03:55:27;5.50;99.90
698;DHT22;331;48.414;9.938;2023-04-03T03:57:56;5.50;99.90
698;DHT22;331;48.414;9.938;2023-04-03T04:00:23;5.50;99.90
698;DHT22;331;48.414;9.938;2023-04-03T04:02:54;5.50;99.90
698;DHT22;331;48.414;9.938;2023-04-03T04:05:22;5.50;99.90
698;DHT22;331;48.414;9.938;2023-04-03T04:07:53;5.30;99.90
698;DHT22;331;48.414;9.938;2023-04-03T04:10:20;5.30;99.90
698;DHT22;331;48.414;9.938;2023-04-03T04:12:47;5.30;99.90
698;DHT22;331;48.414;9.938;2023-04-03T04:15:17;5.30;99.90
698;DHT22;331;48.414;9.938;2023-04-03T04:17:44;5.30;99.90
698;DHT22;331;48.414;9.938;2023-04-03T04:20:11;5.30;99.90
698;DHT22;331;48.414;9.938;2023-04-03T04:22:39;5.30;99.90
698;DHT22;331;48.414;9.938;2023-04-03T04:25:07;5.30;99.90
698;DHT22;331;48.414;9.938;2023-04-03T04:27:36;5.30;99.90
698;DHT22;331;48.414;9.938;2023-04-03T04:30:04;5.30;99.90
698;DHT22;331;48.414;9.938;2023-04-03T04:32:32;5.30;99.90
698;DHT22;331;48.414;9.938;2023-04-03T04:34:59;5.30;99.90
698;DHT22;331;48.414;9.938;2023-04-03T04:37:27;5.20;99.90
698;DHT22;331;48.414;9.938;2023-04-03T04:39:54;5.20;99.90
698;DHT22;331;48.414;9.938;2023-04-03T04:42:22;5.20;99.90
698;DHT22;331;48.414;9.938;2023-04-03T04:44:49;5.20;99.90
698;DHT22;331;48.414;9.938;2023-04-03T04:47:16;5.20;99.90
698;DHT22;331;48.414;9.938;2023-04-03T04:49:43;5.20;99.90
698;DHT22;331;48.414;9.938;2023-04-03T04:52:11;5.20;99.90
698;DHT22;331;48.414;9.938;2023-04-03T04:54:39;5.20;99.90
698;DHT22;331;48.414;9.938;2023-04-03T04:57:06;5.20;99.90
698;DHT22;331;48.414;9.938;2023-04-03T04:59:34;5.20;99.90
698;DHT22;331;48.414;9.938;2023-04-03T05:02:02;5.20;99.90
698;DHT22;331;48.414;9.938;2023-04-03T05:04:31;5.20;99.90
698;DHT22;331;48.414;9.938;2023-04-03T05:07:04;5.10;99.90
698;DHT22;331;48.414;9.938;2023-04-03T05:09:34;5.00;99.90
698;DHT22;331;48.414;9.938;2023-04-03T05:12:01;5.10;99.90
698;DHT22;331;48.414;9.938;2023-04-03T05:14:35;5.10;99.90
698;DHT22;331;48.414;9.938;2023-04-03T05:17:05;5.10;99.90
698;DHT22;331;48.414;9.938;2023-04-03T05:19:35;5.10;99.90
698;DHT22;331;48.414;9.938;2023-04-03T05:22:04;5.10;99.90
698;DHT22;331;48.414;9.938;2023-04-03T05:24:31;5.10;99.90
698;DHT22;331;48.414;9.938;2023-04-03T05:26:58;5.10;99.90
698;DHT22;331;48.414;9.938;2023-04-03T05:29:26;5.00;99.90
698;DHT22;331;48.414;9.938;2023-04-03T05:31:55;5.00;99.90
698;DHT22;331;48.414;9.938;2023-04-03T05:34:22;5.00;99.90
698;DHT22;331;48.414;9.938;2023-04-03T05:36:51;5.00;99.90
698;DHT22;331;48.414;9.938;2023-04-03T05:39:18;5.00;99.90
698;DHT22;331;48.414;9.938;2023-04-03T05:41:46;5.00;99.90
698;DHT22;331;48.414;9.938;2023-04-03T05:44:13;5.00;99.90
698;DHT22;331;48.414;9.938;2023-04-03T05:46:42;5.00;99.90
698;DHT22;331;48.414;9.938;2023-04-03T05:49:11;5.00;99.90
698;DHT22;331;48.414;9.938;2023-04-03T05:51:39;5.00;99.90
698;DHT22;331;48.414;9.938;2023-04-03T05:54:13;5.00;99.90
698;DHT22;331;48.414;9.938;2023-04-03T05:56:43;5.00;99.90
698;DHT22;331;48.414;9.938;2023-04-03T05:59:10;4.90;99.90
698;DHT22;331;48.414;9.938;2023-04-03T06:01:37;4.90;99.90
698;DHT22;331;48.414;9.938;2023-04-03T06:04:04;4.90;99.90
698;DHT22;331;48.414;9.938;2023-04-03T06:06:48;5.00;99.90
698;DHT22;331;48.414;9.938;2023-04-03T06:09:17;4.90;99.90
698;DHT22;331;48.414;9.938;2023-04-03T06:11:44;4.90;99.90
698;DHT22;331;48.414;9.938;2023-04-03T06:14:11;4.90;99.90
698;DHT22;331;48.414;9.938;2023-04-03T06:16:38;4.90;99.90
698;DHT22;331;48.414;9.938;2023-04-03T06:19:06;4.90;99.90
698;DHT22;331;48.414;9.938;2023-04-03T06:21:34;4.80;99.90
698;DHT22;331;48.414;9.938;2023-04-03T06:24:03;4.80;99.90
698;DHT22;331;48.414;9.938;2023-04-03T06:26:31;4.80;99.90
698;DHT22;331;48.414;9.938;2023-04-03T06:28:59;4.80;99.90
698;DHT22;331;48.414;9.938;2023-04-03T06:31:27;4.80;99.90
698;DHT22;331;48.414;9.938;2023-04-03T06:33:54;4.80;99.90
698;DHT22;331;48.414;9.938;2023-04-03T06:36:21;4.80;99.90
698;DHT22;331;48.414;9.938;2023-04-03T06:38:48;4.80;99.90
698;DHT22;331;48.414;9.938;2023-04-03T06:41:16;4.80;99.90
698;DHT22;331;48.414;9.938;2023-04-03T06:43:43;4.80;99.90
698;DHT22;331;48.414;9.938;2023-04-03T06:46:12;4.80;99.90
698;DHT22;331;48.414;9.938;2023-04-03T06:48:40;4.70;99.90
698;DHT22;331;48.414;9.938;2023-04-03T06:51:17;4.70;99.90
698;DHT22;331;48.414;9.938;2023-04-03T06:53:45;4.70;99.90
698;DHT22;331;48.414;9.938;2023-04-03T06:56:12;4.70;99.90
698;DHT22;331;48.414;9.938;2023-04-03T06:58:40;4.70;99.90
698;DHT22;331;48.414;9.938;2023-04-03T07:01:08;4.70;99.90
698;DHT22;331;48.414;9.938;2023-04-03T07:03:35;4.70;99.90
698;DHT22;331;48.414;9.938;2023-04-03T07:06:02;4.70;99.90
698;DHT22;331;48.414;9.938;2023-04-03T07:08:29;4.70;99.90
698;DHT22;331;48.414;9.938;2023-04-03T07:10:56;4.70;99.90
698;DHT22;331;48.414;9.938;2023-04-03T07:13:23;4.70;99.90
698;DHT22;331;48.414;9.938;2023-04-03T07:15:51;4.60;99.90
698;DHT22;331;48.414;9.938;2023-04-03T07:18:18;4.70;99.90
698;DHT22;331;48.414;9.938;2023-04-03T07:20:45;4.60;99.90
698;DHT22;331;48.414;9.938;2023-04-03T07:23:11;4.60;99.90
698;DHT22;331;48.414;9.938;2023-04-03T07:25:41;4.60;99.90
698;DHT22;331;48.414;9.938;2023-04-03T07:28:08;4.60;99.90
698;DHT22;331;48.414;9.938;2023-04-03T07:30:41;4.60;99.90
698;DHT22;331;48.414;9.938;2023-04-03T07:33:10;4.60;99.90
698;DHT22;331;48.414;9.938;2023-04-03T07:35:37;4.60;99.90
698;DHT22;331;48.414;9.938;2023-04-03T07:38:03;4.60;99.90
698;DHT22;331;48.414;9.938;2023-04-03T07:40:31;4.60;99.90
698;DHT22;331;48.414;9.938;2023-04-03T07:42:58;4.60;99.90
698;DHT22;331;48.414;9.938;2023-04-03T07:45:25;4.60;99.90
698;DHT22;331;48.414;9.938;2023-04-03T07:47:52;4.60;99.90
698;DHT22;331;48.414;9.938;2023-04-03T07:50:20;4.60;99.90
698;DHT22;331;48.414;9.938;2023-04-03T07:52:47;4.60;99.90
698;DHT22;331;48.414;9.938;2023-04-03T07:55:16;4.60;99.90
698;DHT22;331;48.414;9.938;2023-04-03T07:57:43;4.60;99.90
698;DHT22;331;48.414;9.938;2023-04-03T08:00:11;4.60;99.90
698;DHT22;331;48.414;9.938;2023-04-03T08:02:40;4.60;99.90
698;DHT22;331;48.414;9.938;2023-04-03T08:05:07;4.60;99.90
698;DHT22;331;48.414;9.938;2023-04-03T08:07:35;4.60;99.90
698;DHT22;331;48.414;9.938;2023-04-03T08:10:03;4.60;99.90
698;DHT22;331;48.414;9.938;2023-04-03T08:12:30;4.60;99.90
698;DHT22;331;48.414;9.938;2023-04-03T08:14:57;4.60;99.90
698;DHT22;331;48.414;9.938;2023-04-03T08:17:26;4.60;99.90
698;DHT22;331;48.414;9.938;2023-04-03T08:19:52;4.60;99.90
698;DHT22;331;48.414;9.938;2023-04-03T08:22:19;4.60;99.90
698;DHT22;331;48.414;9.938;2023-04-03T08:24:48;4.60;99.90
698;DHT22;331;48.414;9.938;2023-04-03T08:27:15;4.60;99.90
698;DHT22;331;48.414;9.938;2023-04-03T08:29:41;4.60;99.90
698;DHT22;331;48.414;9.938;2023-04-03T08:32:08;4.60;99.90
698;DHT22;331;48.414;9.938;2023-04-03T08:34:36;4.60;99.90
698;DHT22;331;48.414;9.938;2023-04-03T08:37:04;4.60;99.90
698;DHT22;331;48.414;9.938;2023-04-03T08:39:31;4.60;99.90
698;DHT22;331;48.414;9.938;2023-04-03T08:42:00;4.60;99.90
698;DHT22;331;48.414;9.938;2023-04-03T08:44:31;4.60;99.90
698;DHT22;331;48.414;9.938;2023-04-03T08:47:02;4.60;99.90
698;DHT22;331;48.414;9.938;2023-04-03T08:49:31;4.60;99.90
698;DHT22;331;48.414;9.938;2023-04-03T08:52:00;4.60;99.90
698;DHT22;331;48.414;9.938;2023-04-03T08:54:30;4.60;99.90
698;DHT22;331;48.414;9.938;2023-04-03T08:56:57;4.70;99.90
698;DHT22;331;48.414;9.938;2023-04-03T08:59:28;4.70;99.90
698;DHT22;331;48.414;9.938;2023-04-03T09:01:56;4.70;99.90
698;DHT22;331;48.414;9.938;2023-04-03T09:04:24;4.70;99.90
698;DHT22;331;48.414;9.938;2023-04-03T09:06:54;4.70;99.90
698;DHT22;331;48.414;9.938;2023-04-03T09:09:24;4.70;99.90
698;DHT22;331;48.414;9.938;2023-04-03T09:11:58;4.70;99.90
698;DHT22;331;48.414;9.938;2023-04-03T09:14:29;4.70;99.90
698;DHT22;331;48.414;9.938;2023-04-03T09:17:00;4.70;99.90
698;DHT22;331;48.414;9.938;2023-04-03T09:19:31;4.70;99.90
698;DHT22;331;48.414;9.938;2023-04-03T09:22:02;4.70;99.90
698;DHT22;331;48.414;9.938;2023-04-03T09:24:29;4.70;99.90
698;DHT22;331;48.414;9.938;2023-04-03T09:26:59;4.70;99.90
698;DHT22;331;48.414;9.938;2023-04-03T09:29:29;4.70;99.90
698;DHT22;331;48.414;9.938;2023-04-03T09:31:56;4.70;99.90
698;DHT22;331;48.414;9.938;2023-04-03T09:34:25;4.70;99.90
698;DHT22;331;48.414;9.938;2023-04-03T09:36:53;4.70;99.90
698;DHT22;331;48.414;9.938;2023-04-03T09:39:20;4.70;99.90
698;DHT22;331;48.414;9.938;2023-04-03T09:42:00;4.70;99.90
698;DHT22;331;48.414;9.938;2023-04-03T09:44:30;4.80;99.90
698;DHT22;331;48.414;9.938;2023-04-03T09:46:57;4.80;99.90
698;DHT22;331;48.414;9.938;2023-04-03T09:49:24;4.80;99.90
698;DHT22;331;48.414;9.938;2023-04-03T09:51:51;4.80;99.90
698;DHT22;331;48.414;9.938;2023-04-03T09:54:30;4.80;99.90
698;DHT22;331;48.414;9.938;2023-04-03T09:56:57;4.80;99.90
698;DHT22;331;48.414;9.938;2023-04-03T09:59:28;4.80;99.90
698;DHT22;331;48.414;9.938;2023-04-03T10:01:58;4.80;99.90
698;DHT22;331;48.414;9.938;2023-04-03T10:04:25;4.80;99.90
698;DHT22;331;48.414;9.938;2023-04-03T10:06:53;4.80;99.90
698;DHT22;331;48.414;9.938;2023-04-03T10:09:21;4.80;99.90
698;DHT22;331;48.414;9.938;2023-04-03T10:11:58;4.80;99.90
698;DHT22;331;48.414;9.938;2023-04-03T10:14:25;4.80;99.90
698;DHT22;331;48.414;9.938;2023-04-03T10:16:55;4.80;99.90
698;DHT22;331;48.414;9.938;2023-04-03T10:19:31;4.80;99.90
698;DHT22;331;48.414;9.938;2023-04-03T10:21:59;4.80;99.90
698;DHT22;331;48.414;9.938;2023-04-03T10:24:31;4.80;99.90
698;DHT22;331;48.414;9.938;2023-04-03T10:27:03;4.80;99.90
698;DHT22;331;48.414;9.938;2023-04-03T10:29:36;4.90;99.90
698;DHT22;331;48.414;9.938;2023-04-03T10:32:12;4.90;99.90
698;DHT22;331;48.414;9.938;2023-04-03T10:34:42;4.90;99.90
698;DHT22;331;48.414;9.938;2023-04-03T10:37:12;4.90;99.90
698;DHT22;331;48.414;9.938;2023-04-03T10:39:43;4.90;99.90
698;DHT22;331;48.414;9.938;2023-04-03T10:42:13;4.90;99.90
698;DHT22;331;48.414;9.938;2023-04-03T10:44:42;4.90;99.90
698;DHT22;331;48.414;9.938;2023-04-03T10:47:16;4.90;99.90
698;DHT22;331;48.414;9.938;2023-04-03T10:49:48;4.90;99.90
698;DHT22;331;48.414;9.938;2023-04-03T10:52:19;4.90;99.90
698;DHT22;331;48.414;9.938;2023-04-03T10:54:48;4.90;99.90
698;DHT22;331;48.414;9.938;2023-04-03T10:57:16;4.90;99.90
698;DHT22;331;48.414;9.938;2023-04-03T10:59:43;4.90;99.90
698;DHT22;331;48.414;9.938;2023-04-03T11:02:13;4.90;99.90
698;DHT22;331;48.414;9.938;2023-04-03T11:04:43;4.90;99.90
698;DHT22;331;48.414;9.938;2023-04-03T11:07:12;5.00;99.90
698;DHT22;331;48.414;9.938;2023-04-03T11:09:41;4.90;99.90
698;DHT22;331;48.414;9.938;2023-04-03T11:12:10;5.00;99.90
698;DHT22;331;48.414;9.938;2023-04-03T11:14:39;4.90;99.90
698;DHT22;331;48.414;9.938;2023-04-03T11:17:11;5.00;99.90
698;DHT22;331;48.414;9.938;2023-04-03T11:19:44;5.00;99.90
698;DHT22;331;48.414;9.938;2023-04-03T11:22:14;5.00;99.90
698;DHT22;331;48.414;9.938;2023-04-03T11:24:42;5.00;99.90
698;DHT22;331;48.414;9.938;2023-04-03T11:27:11;5.00;99.90
698;DHT22;331;48.414;9.938;2023-04-03T11:29:41;5.00;99.90
698;DHT22;331;48.414;9.938;2023-04-03T11:32:12;5.00;99.90
698;DHT22;331;48.414;9.938;2023-04-03T11:34:45;5.00;99.90
698;DHT22;331;48.414;9.938;2023-04-03T11:37:15;5.00;99.90
698;DHT22;331;48.414;9.938;2023-04-03T11:39:47;5.00;99.90
698;DHT22;331;48.414;9.938;2023-04-03T11:42:15;5.00;99.90
698;DHT22;331;48.414;9.938;2023-04-03T11:44:43;5.00;99.90
698;DHT22;331;48.414;9.938;2023-04-03T11:47:10;5.00;99.90
698;DHT22;331;48.414;9.938;2023-04-03T11:58:04;5.00;99.90
698;DHT22;331;48.414;9.938;2023-04-03T12:00:52;5.10;99.90
698;DHT22;331;48.414;9.938;2023-04-03T12:03:29;5.10;99.90
698;DHT22;331;48.414;9.938;2023-04-03T12:05:57;5.10;99.90
698;DHT22;331;48.414;9.938;2023-04-03T12:08:24;5.10;99.90
698;DHT22;331;48.414;9.938;2023-04-03T12:13:34;5.10;99.90
698;DHT22;331;48.414;9.938;2023-04-03T12:16:02;5.10;99.90
698;DHT22;331;48.414;9.938;2023-04-03T12:18:40;5.10;99.90
698;DHT22;331;48.414;9.938;2023-04-03T12:21:07;5.10;99.90
698;DHT22;331;48.414;9.938;2023-04-03T12:23:34;5.20;99.90
698;DHT22;331;48.414;9.938;2023-04-03T12:26:08;5.20;99.90
698;DHT22;331;48.414;9.938;2023-04-03T12:28:48;5.20;99.90
698;DHT22;331;48.414;9.938;2023-04-03T12:31:18;5.20;99.90
698;DHT22;331;48.414;9.938;2023-04-03T12:36:34;5.20;99.90
698;DHT22;331;48.414;9.938;2023-04-03T12:41:46;5.20;99.90
698;DHT22;331;48.414;9.938;2023-04-03T12:44:39;5.20;99.90
698;DHT22;331;48.414;9.938;2023-04-03T12:47:16;5.20;99.90
698;DHT22;331;48.414;9.938;2023-04-03T12:49:45;5.20;99.90
698;DHT22;331;48.414;9.938;2023-04-03T12:52:16;5.20;99.90
698;DHT22;331;48.414;9.938;2023-04-03T12:54:44;5.20;99.90
698;DHT22;331;48.414;9.938;2023-04-03T12:57:16;5.20;99.90
698;DHT22;331;48.414;9.938;2023-04-03T12:59:44;5.30;99.90
698;DHT22;331;48.414;9.938;2023-04-03T13:02:17;5.30;99.90
698;DHT22;331;48.414;9.938;2023-04-03T13:04:46;5.30;99.90
698;DHT22;331;48.414;9.938;2023-04-03T13:07:23;5.30;99.90
698;DHT22;331;48.414;9.938;2023-04-03T13:09:57;5.30;99.90
698;DHT22;331;48.414;9.938;2023-04-03T13:12:26;5.30;99.90
698;DHT22;331;48.414;9.938;2023-04-03T13:14:55;5.30;99.90
698;DHT22;331;48.414;9.938;2023-04-03T13:17:23;5.30;99.90
698;DHT22;331;48.414;9.938;2023-04-03T13:19:50;5.30;99.90
698;DHT22;331;48.414;9.938;2023-04-03T13:22:27;5.30;99.90
698;DHT22;331;48.414;9.938;2023-04-03T13:24:56;5.30;99.90
698;DHT22;331;48.414;9.938;2023-04-03T13:27:24;5.30;99.90
698;DHT22;331;48.414;9.938;2023-04-03T13:29:53;5.30;99.90
698;DHT22;331;48.414;9.938;2023-04-03T13:32:22;5.30;99.90
698;DHT22;331;48.414;9.938;2023-04-03T13:34:49;5.30;99.90
698;DHT22;331;48.414;9.938;2023-04-03T13:37:20;5.30;99.90
698;DHT22;331;48.414;9.938;2023-04-03T13:39:56;5.30;99.90
698;DHT22;331;48.414;9.938;2023-04-03T13:42:24;5.30;99.90
698;DHT22;331;48.414;9.938;2023-04-03T13:45:06;5.40;99.90
698;DHT22;331;48.414;9.938;2023-04-03T13:47:38;5.40;99.90
698;DHT22;331;48.414;9.938;2023-04-03T13:50:12;5.30;99.90
698;DHT22;331;48.414;9.938;2023-04-03T13:52:40;5.40;99.90
698;DHT22;331;48.414;9.938;2023-04-03T13:55:15;5.40;99.90
698;DHT22;331;48.414;9.938;2023-04-03T13:57:48;5.40;99.90
698;DHT22;331;48.414;9.938;2023-04-03T14:00:20;5.40;99.90
698;DHT22;331;48.414;9.938;2023-04-03T14:02:48;5.40;99.90
698;DHT22;331;48.414;9.938;2023-04-03T14:05:15;5.40;99.90
698;DHT22;331;48.414;9.938;2023-04-03T14:07:46;5.50;99.90
698;DHT22;331;48.414;9.938;2023-04-03T14:10:13;5.50;99.90
698;DHT22;331;48.414;9.938;2023-04-03T14:12:40;5.50;99.90
698;DHT22;331;48.414;9.938;2023-04-03T14:15:11;5.50;99.90
698;DHT22;331;48.414;9.938;2023-04-03T14:17:38;5.50;99.90
698;DHT22;331;48.414;9.938;2023-04-03T14:20:10;5.50;99.90
698;DHT22;331;48.414;9.938;2023-04-03T14:22:40;5.50;99.90
698;DHT22;331;48.414;9.938;2023-04-03T14:25:07;5.50;99.90
698;DHT22;331;48.414;9.938;2023-04-03T14:27:34;5.50;99.90
698;DHT22;331;48.414;9.938;2023-04-03T14:30:04;5.50;99.90
698;DHT22;331;48.414;9.938;2023-04-03T14:32:31;5.50;99.90
698;DHT22;331;48.414;9.938;2023-04-03T14:34:58;5.50;99.90
698;DHT22;331;48.414;9.938;2023-04-03T14:37:28;5.60;99.90
698;DHT22;331;48.414;9.938;2023-04-03T14:39:55;5.60;99.90
698;DHT22;331;48.414;9.938;2023-04-03T14:42:23;5.60;99.90
698;DHT22;331;48.414;9.938;2023-04-03T14:44:50;5.60;99.90
698;DHT22;331;48.414;9.938;2023-04-03T14:47:18;5.60;99.90
698;DHT22;331;48.414;9.938;2023-04-03T14:49:46;5.70;99.90
698;DHT22;331;48.414;9.938;2023-04-03T14:52:16;5.70;99.90
698;DHT22;331;48.414;9.938;2023-04-03T14:54:46;5.70;99.90
698;DHT22;331;48.414;9.938;2023-04-03T14:57:13;5.70;99.90
698;DHT22;331;48.414;9.938;2023-04-03T14:59:40;5.70;99.90
698;DHT22;331;48.414;9.938;2023-04-03T15:02:11;5.70;99.90
698;DHT22;331;48.414;9.938;2023-04-03T15:04:46;5.70;99.90
698;DHT22;331;48.414;9.938;2023-04-03T15:07:13;5.70;99.90
698;DHT22;331;48.414;9.938;2023-04-03T15:09:40;5.70;99.90
698;DHT22;331;48.414;9.938;2023-04-03T15:12:09;5.70;99.90
698;DHT22;331;48.414;9.938;2023-04-03T15:14:36;5.70;99.90
698;DHT22;331;48.414;9.938;2023-04-03T15:17:03;5.70;99.90
698;DHT22;331;48.414;9.938;2023-04-03T15:19:30;5.70;99.90
698;DHT22;331;48.414;9.938;2023-04-03T15:21:57;5.80;99.90
698;DHT22;331;48.414;9.938;2023-04-03T15:24:24;5.80;99.90
698;DHT22;331;48.414;9.938;2023-04-03T15:26:51;5.80;99.90
698;DHT22;331;48.414;9.938;2023-04-03T15:29:19;5.80;99.90
698;DHT22;331;48.414;9.938;2023-04-03T15:31:46;5.80;99.90
698;DHT22;331;48.414;9.938;2023-04-03T15:34:15;5.80;99.90
698;DHT22;331;48.414;9.938;2023-04-03T15:36:42;5.80;99.90
698;DHT22;331;48.414;9.938;2023-04-03T15:39:09;5.80;99.90
698;DHT22;331;48.414;9.938;2023-04-03T15:41:36;5.80;99.90
698;DHT22;331;48.414;9.938;2023-04-03T15:44:03;5.80;99.90
698;DHT22;331;48.414;9.938;2023-04-03T15:46:31;5.80;99.90
698;DHT22;331;48.414;9.938;2023-04-03T15:48:58;5.80;99.90
698;DHT22;331;48.414;9.938;2023-04-03T15:51:25;5.80;99.90
698;DHT22;331;48.414;9.938;2023-04-03T15:53:52;5.80;99.90
698;DHT22;331;48.414;9.938;2023-04-03T15:56:19;5.80;99.90
698;DHT22;331;48.414;9.938;2023-04-03T15:58:46;5.80;99.90
698;DHT22;331;48.414;9.938;2023-04-03T16:01:12;5.80;99.90
698;DHT22;331;48.414;9.938;2023-04-03T16:03:41;5.80;99.90
698;DHT22;331;48.414;9.938;2023-04-03T16:06:10;5.90;99.90
698;DHT22;331;48.414;9.938;2023-04-03T16:08:37;5.80;99.90
698;DHT22;331;48.414;9.938;2023-04-03T16:11:04;5.90;99.90
698;DHT22;331;48.414;9.938;2023-04-03T16:13:31;5.90;99.90
698;DHT22;331;48.414;9.938;2023-04-03T16:15:59;5.90;99.90
698;DHT22;331;48.414;9.938;2023-04-03T16:18:26;5.80;99.90
698;DHT22;331;48.414;9.938;2023-04-03T16:20:55;5.80;99.90
698;DHT22;331;48.414;9.938;2023-04-03T16:23:22;5.90;99.90
698;DHT22;331;48.414;9.938;2023-04-03T16:25:49;5.90;99.90
698;DHT22;331;48.414;9.938;2023-04-03T16:28:16;5.90;99.90
698;DHT22;331;48.414;9.938;2023-04-03T16:30:44;5.90;99.90
698;DHT22;331;48.414;9.938;2023-04-03T16:33:11;5.90;99.90
698;DHT22;331;48.414;9.938;2023-04-03T16:35:39;5.90;99.90
698;DHT22;331;48.414;9.938;2023-04-03T16:38:08;5.90;99.90
698;DHT22;331;48.414;9.938;2023-04-03T16:40:35;5.90;99.90
698;DHT22;331;48.414;9.938;2023-04-03T16:43:02;5.90;99.90
698;DHT22;331;48.414;9.938;2023-04-03T16:45:29;5.90;99.90
698;DHT22;331;48.414;9.938;2023-04-03T16:47:56;5.90;99.90
698;DHT22;331;48.414;9.938;2023-04-03T16:50:26;5.90;99.90
698;DHT22;331;48.414;9.938;2023-04-03T16:52:53;5.90;99.90
698;DHT22;331;48.414;9.938;2023-04-03T16:55:21;5.90;99.90
698;DHT22;331;48.414;9.938;2023-04-03T16:57:48;5.90;99.90
698;DHT22;331;48.414;9.938;2023-04-03T17:00:15;5.90;99.90
698;DHT22;331;48.414;9.938;2023-04-03T17:02:42;5.90;99.90
698;DHT22;331;48.414;9.938;2023-04-03T17:05:09;5.90;99.90
698;DHT22;331;48.414;9.938;2023-04-03T17:07:36;5.90;99.90
698;DHT22;331;48.414;9.938;2023-04-03T17:10:03;5.90;99.90
698;DHT22;331;48.414;9.938;2023-04-03T17:12:31;5.90;99.90
698;DHT22;331;48.414;9.938;2023-04-03T17:14:58;5.90;99.90
698;DHT22;331;48.414;9.938;2023-04-03T17:17:25;5.90;99.90
698;DHT22;331;48.414;9.938;2023-04-03T17:19:53;5.90;99.90
698;DHT22;331;48.414;9.938;2023-04-03T17:22:20;5.90;99.90
698;DHT22;331;48.414;9.938;2023-04-03T17:24:47;5.90;99.90